NCAR-RAP Real-Time Weather Data

Output produced by METARs form (19 June 2019  11:16 UTC)
found at http://weather.rap.ucar.edu/surface/
 
KROC 191054Z 22003KT 10SM FEW060 FEW075 BKN250 16/14 A2983 RMK AO2 SLP103 ACC S T01610139
KROC 190954Z 22004KT 10SM FEW070 SCT180 SCT250 14/13 A2984 RMK AO2 SLP106 ACC SE T01440128
KROC 190854Z 00000KT 10SM FEW080 FEW150 FEW250 14/13 A2984 RMK AO2 SLP106 ACC DSNT NE T01440128 56006
KROC 190754Z 00000KT 10SM FEW250 16/13 A2984 RMK AO2 SLP107 T01560133
KROC 190654Z 26003KT 10SM FEW180 16/13 A2984 RMK AO2 SLP106 T01560133
KROC 190554Z 21004KT 10SM FEW180 16/13 A2986 RMK AO2 SLP111 T01560133 10222 20156 58009
KROC 190454Z 00000KT 10SM FEW250 17/13 A2987 RMK AO2 SLP116 T01720133 402560156
KROC 190354Z 24004KT 10SM SCT055 17/13 A2988 RMK AO2 SLP118 T01720133
KROC 190254Z 00000KT 10SM BKN060 19/13 A2989 RMK AO2 SLP121 T01890133 50004
KROC 190154Z 00000KT 10SM BKN060 19/12 A2989 RMK AO2 SLP121 T01890122
KROC 190054Z 07003KT 10SM FEW040 SCT070 SCT180 21/11 A2987 RMK AO2 SLP116 T02110106
KROC 182354Z 04006KT 10SM FEW030 FEW060 FEW180 22/11 A2987 RMK AO2 SLP117 T02220106 10250 20222 58003
KROC 182254Z 02008KT 10SM FEW030 FEW100 SCT180 BKN250 23/11 A2988 RMK AO2 SLP118 T02330111
KROC 182154Z 02010KT 10SM FEW030 FEW100 SCT180 23/12 A2989 RMK AO2 SLP121 T02330117
KROC 182054Z 05008KT 10SM FEW030 FEW180 24/13 A2988 RMK AO2 SLP120 T02440133 58010
KROC 181954Z 02008KT 10SM FEW045 SCT250 24/14 A2989 RMK AO2 SLP123 T02440139
KROC 181854Z 03010KT 10SM FEW040 SCT080 SCT250 24/14 A2991 RMK AO2 SLP128 T02440139
KROC 181754Z 02009KT 10SM FEW040 SCT080 BKN200 24/14 A2992 RMK AO2 SLP130 T02440144 10256 20167 56008
KROC 181654Z 04004KT 10SM SCT033 BKN055 BKN200 24/16 A2992 RMK AO2 SLP132 T02440156
KROC 181554Z VRB03KT 10SM FEW050 BKN085 BKN200 24/16 A2993 RMK AO2 SLP135 T02390156
KROC 181454Z 00000KT 10SM SCT049 BKN075 23/14 A2994 RMK AO2 SLP139 T02280139 58006
KROC 181354Z 10004KT 10SM BKN049 BKN150 21/13 A2995 RMK AO2 SLP143 T02060128